Park Hills, Pennsylvania
Current Conditions -  °F | °C
As of 4:53 PM on Saturday 20 Dec 2014 (Local Time) from KTHV Reporting Station
Few Clouds Few Clouds  
Wind Chill: 29°   Ceiling: Unl
Heat Index: 29°   Visibility: 10mi
Dew Point: 21°   Wind: 0mph
Humidity: 72%   Direction: NA
Pressure: 30.26"   Gusts: NA
Location:  39.7863°N, 76.988°W
Report Text: KTHV 202153Z AUTO 00000KT 10SM FEW120 M02/M06 A3026 RMK AO2 SLP254 T10171061
Loading
Personal Weather Stations






























Interactive Weather Map New forecast layout! Learn more

10-Day Weather Forecast

Advertisements
Track Severe Weather on mobile